Главная страница
METAR-TAF:

METAR-TAF

Аэропорты :

Шоуду

Пекин, Китай

широта: 39-56N, долгота: 116-17E, высота над уровнем моря: 55 м

Текущие метеонаблюдения

Эта сводка был подготовлена 18 минут назад, в 11:30 UTC
Ветер 2 Узел от юго-юго-восточный
Температура 14°C
Влажность 67%
Давление 1021 hPa
Видимость 10 км и более
Нет облачности ниже 1500 м, и нет кучево-дождевой облачности

METAR: ZBAA 241130Z 16001MPS CAVOK 14/08 Q1021 NOSIG

Время: 19:48 (11:48 UTC)

Прогноз

Эта сводка был подготовлена 2 часа и 28 минут назад, в 09:20 UTC
Прогноз действительный с 24-го 12 UTC до 25-го 12 UTC
Ветер 8 Узел от южный
Видимость: 6000 м

TAF: ZBAA 240920Z 2412/2512 18004MPS 6000 NSC TX24/2507Z TN09/2421Z

Метеонаблюдения и прогнозы для более 4000 аэропортов (сводки METAR и TAF).

Имеющиеся станции представлены на карте желтыми и красными точками.

Чтобы увидеть название станции, наведите на нее мышь.

Затем щелкните, чтобы увидеть метеонаблюдения и метеопрогнозы.

Управление картой: чтобы увеличить масштаб, щелкните зеленые кнопки с черным крестиком; чтобы уменьшить масштаб, щелкните зеленую кнопку с тире; для просмотра соседних карт щелкайте зеленые стрелки.


METAR-TAF: